sensor_id;sensor_type;location;lat;lon;timestamp;P1;durP1;ratioP1;P2;durP2;ratioP2
74821;SDS011;63353;48.702;8.884;2023-07-13T00:00:32;5.03;;;4.73;;
74821;SDS011;63353;48.702;8.884;2023-07-13T00:03:01;5.03;;;4.63;;
74821;SDS011;63353;48.702;8.884;2023-07-13T00:05:27;5.30;;;5.00;;
74821;SDS011;63353;48.702;8.884;2023-07-13T00:07:53;5.37;;;4.97;;
74821;SDS011;63353;48.702;8.884;2023-07-13T00:10:25;5.20;;;4.90;;
74821;SDS011;63353;48.702;8.884;2023-07-13T00:12:51;5.40;;;4.93;;
74821;SDS011;63353;48.702;8.884;2023-07-13T00:15:20;5.10;;;4.80;;
74821;SDS011;63353;48.702;8.884;2023-07-13T00:17:52;4.70;;;4.50;;
74821;SDS011;63353;48.702;8.884;2023-07-13T00:20:28;5.00;;;4.77;;
74821;SDS011;63353;48.702;8.884;2023-07-13T00:23:00;4.67;;;4.37;;
74821;SDS011;63353;48.702;8.884;2023-07-13T00:25:31;5.00;;;4.60;;
74821;SDS011;63353;48.702;8.884;2023-07-13T00:27:57;4.93;;;4.63;;
74821;SDS011;63353;48.702;8.884;2023-07-13T00:30:23;5.03;;;4.63;;
74821;SDS011;63353;48.702;8.884;2023-07-13T00:32:55;5.40;;;4.87;;
74821;SDS011;63353;48.702;8.884;2023-07-13T00:35:27;4.60;;;4.30;;
74821;SDS011;63353;48.702;8.884;2023-07-13T00:37:55;4.87;;;4.43;;
74821;SDS011;63353;48.702;8.884;2023-07-13T00:40:26;4.63;;;4.37;;
74821;SDS011;63353;48.702;8.884;2023-07-13T00:42:52;4.90;;;4.60;;
74821;SDS011;63353;48.702;8.884;2023-07-13T00:47:47;5.03;;;4.73;;
74821;SDS011;63353;48.702;8.884;2023-07-13T00:50:14;6.43;;;4.60;;
74821;SDS011;63353;48.702;8.884;2023-07-13T00:52:49;4.80;;;4.50;;
74821;SDS011;63353;48.702;8.884;2023-07-13T00:55:18;4.53;;;4.10;;
74821;SDS011;63353;48.702;8.884;2023-07-13T00:57:46;4.83;;;4.47;;
74821;SDS011;63353;48.702;8.884;2023-07-13T01:00:12;5.00;;;4.70;;
74821;SDS011;63353;48.702;8.884;2023-07-13T01:02:39;5.10;;;4.80;;
74821;SDS011;63353;48.702;8.884;2023-07-13T01:05:10;5.20;;;4.90;;
74821;SDS011;63353;48.702;8.884;2023-07-13T01:07:44;5.00;;;4.70;;
74821;SDS011;63353;48.702;8.884;2023-07-13T01:10:11;5.93;;;5.43;;
74821;SDS011;63353;48.702;8.884;2023-07-13T01:12:40;5.57;;;5.17;;
74821;SDS011;63353;48.702;8.884;2023-07-13T01:15:32;5.03;;;4.83;;
74821;SDS011;63353;48.702;8.884;2023-07-13T01:18:11;5.73;;;5.23;;
74821;SDS011;63353;48.702;8.884;2023-07-13T01:20:40;5.87;;;5.20;;
74821;SDS011;63353;48.702;8.884;2023-07-13T01:23:07;5.30;;;5.10;;
74821;SDS011;63353;48.702;8.884;2023-07-13T01:25:35;5.60;;;5.10;;
74821;SDS011;63353;48.702;8.884;2023-07-13T01:28:09;5.50;;;5.10;;
74821;SDS011;63353;48.702;8.884;2023-07-13T01:30:35;5.60;;;5.30;;
74821;SDS011;63353;48.702;8.884;2023-07-13T01:33:03;5.23;;;5.03;;
74821;SDS011;63353;48.702;8.884;2023-07-13T01:35:29;5.43;;;5.13;;
74821;SDS011;63353;48.702;8.884;2023-07-13T01:38:01;5.37;;;4.97;;
74821;SDS011;63353;48.702;8.884;2023-07-13T01:40:28;5.63;;;5.20;;
74821;SDS011;63353;48.702;8.884;2023-07-13T01:42:54;5.40;;;5.00;;
74821;SDS011;63353;48.702;8.884;2023-07-13T01:45:20;5.83;;;5.20;;
74821;SDS011;63353;48.702;8.884;2023-07-13T01:47:46;5.43;;;4.97;;
74821;SDS011;63353;48.702;8.884;2023-07-13T01:50:15;5.07;;;4.87;;
74821;SDS011;63353;48.702;8.884;2023-07-13T01:52:40;5.20;;;4.80;;
74821;SDS011;63353;48.702;8.884;2023-07-13T01:55:06;5.10;;;4.60;;
74821;SDS011;63353;48.702;8.884;2023-07-13T01:57:32;5.00;;;4.60;;
74821;SDS011;63353;48.702;8.884;2023-07-13T01:59:58;4.83;;;4.53;;
74821;SDS011;63353;48.702;8.884;2023-07-13T02:02:24;4.83;;;4.53;;
74821;SDS011;63353;48.702;8.884;2023-07-13T02:04:49;4.90;;;4.60;;
74821;SDS011;63353;48.702;8.884;2023-07-13T02:07:15;4.93;;;4.50;;
74821;SDS011;63353;48.702;8.884;2023-07-13T02:09:47;7.67;;;5.03;;
74821;SDS011;63353;48.702;8.884;2023-07-13T02:12:12;5.03;;;4.40;;
74821;SDS011;63353;48.702;8.884;2023-07-13T02:14:47;4.90;;;4.60;;
74821;SDS011;63353;48.702;8.884;2023-07-13T02:17:16;4.83;;;4.53;;
74821;SDS011;63353;48.702;8.884;2023-07-13T02:19:41;5.67;;;4.90;;
74821;SDS011;63353;48.702;8.884;2023-07-13T02:22:16;5.37;;;4.60;;
74821;SDS011;63353;48.702;8.884;2023-07-13T02:24:45;4.90;;;4.60;;
74821;SDS011;63353;48.702;8.884;2023-07-13T02:27:23;5.50;;;4.87;;
74821;SDS011;63353;48.702;8.884;2023-07-13T02:29:52;5.33;;;5.07;;
74821;SDS011;63353;48.702;8.884;2023-07-13T02:32:21;5.10;;;4.70;;
74821;SDS011;63353;48.702;8.884;2023-07-13T02:34:47;5.10;;;4.70;;
74821;SDS011;63353;48.702;8.884;2023-07-13T02:37:16;5.87;;;5.27;;
74821;SDS011;63353;48.702;8.884;2023-07-13T02:39:45;5.07;;;4.63;;
74821;SDS011;63353;48.702;8.884;2023-07-13T02:42:10;5.23;;;4.93;;
74821;SDS011;63353;48.702;8.884;2023-07-13T02:44:36;5.40;;;5.10;;
74821;SDS011;63353;48.702;8.884;2023-07-13T02:47:01;6.07;;;5.67;;
74821;SDS011;63353;48.702;8.884;2023-07-13T02:49:27;5.40;;;5.03;;
74821;SDS011;63353;48.702;8.884;2023-07-13T02:51:56;5.07;;;4.50;;
74821;SDS011;63353;48.702;8.884;2023-07-13T02:54:21;5.53;;;5.03;;
74821;SDS011;63353;48.702;8.884;2023-07-13T02:56:47;5.23;;;4.80;;
74821;SDS011;63353;48.702;8.884;2023-07-13T02:59:13;5.40;;;4.97;;
74821;SDS011;63353;48.702;8.884;2023-07-13T03:01:38;5.23;;;4.93;;
74821;SDS011;63353;48.702;8.884;2023-07-13T03:04:11;5.60;;;5.13;;
74821;SDS011;63353;48.702;8.884;2023-07-13T03:06:40;5.27;;;4.80;;
74821;SDS011;63353;48.702;8.884;2023-07-13T03:09:06;5.73;;;5.30;;
74821;SDS011;63353;48.702;8.884;2023-07-13T03:11:34;5.60;;;5.20;;
74821;SDS011;63353;48.702;8.884;2023-07-13T03:14:03;5.90;;;5.37;;
74821;SDS011;63353;48.702;8.884;2023-07-13T03:16:31;5.60;;;5.20;;
74821;SDS011;63353;48.702;8.884;2023-07-13T03:19:00;5.50;;;5.10;;
74821;SDS011;63353;48.702;8.884;2023-07-13T03:21:31;6.00;;;5.63;;
74821;SDS011;63353;48.702;8.884;2023-07-13T03:24:03;5.90;;;5.50;;
74821;SDS011;63353;48.702;8.884;2023-07-13T03:26:29;5.97;;;5.53;;
74821;SDS011;63353;48.702;8.884;2023-07-13T03:28:54;5.77;;;5.27;;
74821;SDS011;63353;48.702;8.884;2023-07-13T03:31:27;5.83;;;5.43;;
74821;SDS011;63353;48.702;8.884;2023-07-13T03:34:00;5.73;;;5.30;;
74821;SDS011;63353;48.702;8.884;2023-07-13T03:36:31;7.33;;;5.43;;
74821;SDS011;63353;48.702;8.884;2023-07-13T03:39:00;5.67;;;5.30;;
74821;SDS011;63353;48.702;8.884;2023-07-13T03:41:28;6.03;;;5.70;;
74821;SDS011;63353;48.702;8.884;2023-07-13T03:43:53;5.63;;;5.17;;
74821;SDS011;63353;48.702;8.884;2023-07-13T03:46:25;6.17;;;5.70;;
74821;SDS011;63353;48.702;8.884;2023-07-13T03:49:00;5.17;;;4.77;;
74821;SDS011;63353;48.702;8.884;2023-07-13T03:51:26;5.50;;;5.03;;
74821;SDS011;63353;48.702;8.884;2023-07-13T03:53:52;5.70;;;5.20;;
74821;SDS011;63353;48.702;8.884;2023-07-13T03:56:24;5.63;;;5.17;;
74821;SDS011;63353;48.702;8.884;2023-07-13T03:58:55;5.43;;;5.13;;
74821;SDS011;63353;48.702;8.884;2023-07-13T04:01:23;5.97;;;5.60;;
74821;SDS011;63353;48.702;8.884;2023-07-13T04:03:50;5.83;;;5.37;;
74821;SDS011;63353;48.702;8.884;2023-07-13T04:06:17;5.80;;;5.40;;
74821;SDS011;63353;48.702;8.884;2023-07-13T04:08:53;5.93;;;5.40;;
74821;SDS011;63353;48.702;8.884;2023-07-13T04:11:22;6.10;;;5.60;;
74821;SDS011;63353;48.702;8.884;2023-07-13T04:13:49;7.40;;;6.60;;
74821;SDS011;63353;48.702;8.884;2023-07-13T04:16:16;6.77;;;6.30;;
74821;SDS011;63353;48.702;8.884;2023-07-13T04:18:43;6.20;;;5.70;;
74821;SDS011;63353;48.702;8.884;2023-07-13T04:21:12;6.20;;;5.80;;
74821;SDS011;63353;48.702;8.884;2023-07-13T04:23:41;6.60;;;6.20;;
74821;SDS011;63353;48.702;8.884;2023-07-13T04:26:07;7.30;;;6.70;;
74821;SDS011;63353;48.702;8.884;2023-07-13T04:28:34;6.87;;;5.90;;
74821;SDS011;63353;48.702;8.884;2023-07-13T04:30:59;6.70;;;6.10;;
74821;SDS011;63353;48.702;8.884;2023-07-13T04:33:28;6.17;;;5.70;;
74821;SDS011;63353;48.702;8.884;2023-07-13T04:35:57;6.60;;;5.90;;
74821;SDS011;63353;48.702;8.884;2023-07-13T04:38:25;6.17;;;5.67;;
74821;SDS011;63353;48.702;8.884;2023-07-13T04:40:54;6.47;;;5.97;;
74821;SDS011;63353;48.702;8.884;2023-07-13T04:43:22;5.90;;;5.40;;
74821;SDS011;63353;48.702;8.884;2023-07-13T04:45:48;6.30;;;5.70;;
74821;SDS011;63353;48.702;8.884;2023-07-13T04:48:15;6.10;;;5.70;;
74821;SDS011;63353;48.702;8.884;2023-07-13T04:50:41;6.37;;;5.87;;
74821;SDS011;63353;48.702;8.884;2023-07-13T04:53:08;6.30;;;5.80;;
74821;SDS011;63353;48.702;8.884;2023-07-13T04:55:41;6.17;;;5.73;;
74821;SDS011;63353;48.702;8.884;2023-07-13T04:58:07;6.23;;;5.50;;
74821;SDS011;63353;48.702;8.884;2023-07-13T05:00:36;6.30;;;5.90;;
74821;SDS011;63353;48.702;8.884;2023-07-13T05:03:02;6.47;;;5.87;;
74821;SDS011;63353;48.702;8.884;2023-07-13T05:05:28;6.53;;;6.10;;
74821;SDS011;63353;48.702;8.884;2023-07-13T05:08:00;5.83;;;5.53;;
74821;SDS011;63353;48.702;8.884;2023-07-13T05:10:25;6.37;;;5.97;;
74821;SDS011;63353;48.702;8.884;2023-07-13T05:12:51;6.70;;;6.17;;
74821;SDS011;63353;48.702;8.884;2023-07-13T05:15:17;6.37;;;5.80;;
74821;SDS011;63353;48.702;8.884;2023-07-13T05:17:46;6.07;;;5.40;;
74821;SDS011;63353;48.702;8.884;2023-07-13T05:20:16;6.13;;;5.53;;
74821;SDS011;63353;48.702;8.884;2023-07-13T05:22:49;6.00;;;5.60;;
74821;SDS011;63353;48.702;8.884;2023-07-13T05:25:15;5.77;;;5.47;;
74821;SDS011;63353;48.702;8.884;2023-07-13T05:27:41;7.73;;;6.37;;
74821;SDS011;63353;48.702;8.884;2023-07-13T05:30:10;5.90;;;5.60;;
74821;SDS011;63353;48.702;8.884;2023-07-13T05:32:37;6.20;;;5.60;;
74821;SDS011;63353;48.702;8.884;2023-07-13T05:35:03;6.00;;;5.57;;
74821;SDS011;63353;48.702;8.884;2023-07-13T05:37:28;6.50;;;6.07;;
74821;SDS011;63353;48.702;8.884;2023-07-13T05:39:54;6.00;;;5.60;;
74821;SDS011;63353;48.702;8.884;2023-07-13T05:42:20;6.10;;;5.57;;
74821;SDS011;63353;48.702;8.884;2023-07-13T05:44:45;6.33;;;5.80;;
74821;SDS011;63353;48.702;8.884;2023-07-13T05:47:11;5.83;;;5.43;;
74821;SDS011;63353;48.702;8.884;2023-07-13T05:49:40;5.80;;;5.30;;
74821;SDS011;63353;48.702;8.884;2023-07-13T05:52:06;7.20;;;5.67;;
74821;SDS011;63353;48.702;8.884;2023-07-13T05:54:32;5.90;;;5.60;;
74821;SDS011;63353;48.702;8.884;2023-07-13T05:56:58;6.07;;;5.60;;
74821;SDS011;63353;48.702;8.884;2023-07-13T05:59:23;7.87;;;5.27;;
74821;SDS011;63353;48.702;8.884;2023-07-13T06:01:49;5.53;;;5.00;;
74821;SDS011;63353;48.702;8.884;2023-07-13T06:04:17;5.33;;;4.93;;
74821;SDS011;63353;48.702;8.884;2023-07-13T06:06:43;6.07;;;5.50;;
74821;SDS011;63353;48.702;8.884;2023-07-13T06:09:08;5.60;;;5.20;;
74821;SDS011;63353;48.702;8.884;2023-07-13T06:11:34;6.30;;;5.80;;
74821;SDS011;63353;48.702;8.884;2023-07-13T06:14:00;5.70;;;5.20;;
74821;SDS011;63353;48.702;8.884;2023-07-13T06:16:25;5.67;;;5.27;;
74821;SDS011;63353;48.702;8.884;2023-07-13T06:18:51;5.30;;;4.90;;
74821;SDS011;63353;48.702;8.884;2023-07-13T06:21:20;5.17;;;4.87;;
74821;SDS011;63353;48.702;8.884;2023-07-13T06:23:48;5.13;;;4.63;;
74821;SDS011;63353;48.702;8.884;2023-07-13T06:26:15;5.27;;;4.93;;
74821;SDS011;63353;48.702;8.884;2023-07-13T06:28:42;5.30;;;4.90;;
74821;SDS011;63353;48.702;8.884;2023-07-13T06:31:09;5.37;;;4.87;;
74821;SDS011;63353;48.702;8.884;2023-07-13T06:33:36;5.63;;;5.13;;
74821;SDS011;63353;48.702;8.884;2023-07-13T06:36:02;5.13;;;4.83;;
74821;SDS011;63353;48.702;8.884;2023-07-13T06:38:29;5.50;;;5.00;;
74821;SDS011;63353;48.702;8.884;2023-07-13T06:40:55;5.47;;;5.07;;
74821;SDS011;63353;48.702;8.884;2023-07-13T06:43:21;5.37;;;4.97;;
74821;SDS011;63353;48.702;8.884;2023-07-13T06:45:47;5.33;;;4.97;;
74821;SDS011;63353;48.702;8.884;2023-07-13T06:48:24;5.20;;;4.83;;
74821;SDS011;63353;48.702;8.884;2023-07-13T06:50:50;5.40;;;4.90;;
74821;SDS011;63353;48.702;8.884;2023-07-13T06:53:22;5.30;;;5.00;;
74821;SDS011;63353;48.702;8.884;2023-07-13T06:55:49;5.47;;;5.17;;
74821;SDS011;63353;48.702;8.884;2023-07-13T06:58:15;5.37;;;4.93;;
74821;SDS011;63353;48.702;8.884;2023-07-13T07:00:45;5.33;;;5.03;;
74821;SDS011;63353;48.702;8.884;2023-07-13T07:03:14;4.90;;;4.60;;
74821;SDS011;63353;48.702;8.884;2023-07-13T07:05:43;5.60;;;5.10;;
74821;SDS011;63353;48.702;8.884;2023-07-13T07:08:12;5.00;;;4.60;;
74821;SDS011;63353;48.702;8.884;2023-07-13T07:10:44;4.97;;;4.67;;
74821;SDS011;63353;48.702;8.884;2023-07-13T07:13:25;5.47;;;4.97;;
74821;SDS011;63353;48.702;8.884;2023-07-13T07:15:56;5.50;;;5.20;;
74821;SDS011;63353;48.702;8.884;2023-07-13T07:18:22;5.07;;;4.77;;
74821;SDS011;63353;48.702;8.884;2023-07-13T07:20:48;5.00;;;4.70;;
74821;SDS011;63353;48.702;8.884;2023-07-13T07:23:14;5.77;;;5.37;;
74821;SDS011;63353;48.702;8.884;2023-07-13T07:25:40;4.93;;;4.60;;
74821;SDS011;63353;48.702;8.884;2023-07-13T07:28:08;4.63;;;4.40;;
74821;SDS011;63353;48.702;8.884;2023-07-13T07:30:36;5.17;;;4.90;;
74821;SDS011;63353;48.702;8.884;2023-07-13T07:33:09;4.73;;;4.40;;
74821;SDS011;63353;48.702;8.884;2023-07-13T07:35:34;5.00;;;4.53;;
74821;SDS011;63353;48.702;8.884;2023-07-13T07:38:00;4.80;;;4.50;;
74821;SDS011;63353;48.702;8.884;2023-07-13T07:40:26;4.57;;;4.37;;
74821;SDS011;63353;48.702;8.884;2023-07-13T07:42:52;5.03;;;4.73;;
74821;SDS011;63353;48.702;8.884;2023-07-13T07:45:27;4.47;;;4.17;;
74821;SDS011;63353;48.702;8.884;2023-07-13T07:47:59;4.60;;;4.30;;
74821;SDS011;63353;48.702;8.884;2023-07-13T07:50:25;4.57;;;4.23;;
74821;SDS011;63353;48.702;8.884;2023-07-13T07:52:57;4.27;;;4.07;;
74821;SDS011;63353;48.702;8.884;2023-07-13T07:55:27;5.37;;;4.90;;
74821;SDS011;63353;48.702;8.884;2023-07-13T07:57:53;4.70;;;4.47;;
74821;SDS011;63353;48.702;8.884;2023-07-13T08:00:19;4.63;;;4.43;;
74821;SDS011;63353;48.702;8.884;2023-07-13T08:02:45;4.50;;;4.20;;
74821;SDS011;63353;48.702;8.884;2023-07-13T08:05:11;4.60;;;4.20;;
74821;SDS011;63353;48.702;8.884;2023-07-13T08:07:37;4.90;;;4.40;;
74821;SDS011;63353;48.702;8.884;2023-07-13T08:10:04;4.67;;;4.30;;
74821;SDS011;63353;48.702;8.884;2023-07-13T08:12:34;4.27;;;4.07;;
74821;SDS011;63353;48.702;8.884;2023-07-13T08:15:01;4.43;;;4.23;;
74821;SDS011;63353;48.702;8.884;2023-07-13T08:17:26;4.57;;;4.30;;
74821;SDS011;63353;48.702;8.884;2023-07-13T08:19:52;4.73;;;4.37;;
74821;SDS011;63353;48.702;8.884;2023-07-13T08:22:18;4.90;;;4.57;;
74821;SDS011;63353;48.702;8.884;2023-07-13T08:24:44;5.03;;;4.77;;
74821;SDS011;63353;48.702;8.884;2023-07-13T08:27:10;5.10;;;4.80;;
74821;SDS011;63353;48.702;8.884;2023-07-13T08:29:36;5.20;;;4.90;;
74821;SDS011;63353;48.702;8.884;2023-07-13T08:32:02;4.70;;;4.40;;
74821;SDS011;63353;48.702;8.884;2023-07-13T08:34:29;5.17;;;4.87;;
74821;SDS011;63353;48.702;8.884;2023-07-13T08:36:55;5.00;;;4.80;;
74821;SDS011;63353;48.702;8.884;2023-07-13T08:39:20;4.80;;;4.50;;
74821;SDS011;63353;48.702;8.884;2023-07-13T08:41:49;4.87;;;4.50;;
74821;SDS011;63353;48.702;8.884;2023-07-13T08:44:24;4.43;;;4.23;;
74821;SDS011;63353;48.702;8.884;2023-07-13T08:47:15;5.10;;;4.70;;
74821;SDS011;63353;48.702;8.884;2023-07-13T08:49:42;5.07;;;4.70;;
74821;SDS011;63353;48.702;8.884;2023-07-13T08:55:13;5.55;;;5.13;;
74821;SDS011;63353;48.702;8.884;2023-07-13T08:57:42;5.33;;;4.80;;
74821;SDS011;63353;48.702;8.884;2023-07-13T09:00:11;5.13;;;4.77;;
74821;SDS011;63353;48.702;8.884;2023-07-13T09:02:46;4.73;;;4.43;;
74821;SDS011;63353;48.702;8.884;2023-07-13T09:05:33;4.73;;;4.43;;
74821;SDS011;63353;48.702;8.884;2023-07-13T09:13:00;5.13;;;4.73;;
74821;SDS011;63353;48.702;8.884;2023-07-13T09:15:38;5.03;;;4.70;;
74821;SDS011;63353;48.702;8.884;2023-07-13T09:20:47;5.00;;;4.60;;
74821;SDS011;63353;48.702;8.884;2023-07-13T09:23:22;5.10;;;4.60;;
74821;SDS011;63353;48.702;8.884;2023-07-13T09:25:51;4.57;;;4.27;;
74821;SDS011;63353;48.702;8.884;2023-07-13T09:28:23;4.47;;;4.20;;
74821;SDS011;63353;48.702;8.884;2023-07-13T09:30:54;4.90;;;4.60;;
74821;SDS011;63353;48.702;8.884;2023-07-13T09:33:26;4.97;;;4.57;;
74821;SDS011;63353;48.702;8.884;2023-07-13T09:35:54;4.40;;;4.20;;
74821;SDS011;63353;48.702;8.884;2023-07-13T09:38:23;4.83;;;4.53;;
74821;SDS011;63353;48.702;8.884;2023-07-13T09:44:10;4.90;;;4.60;;
74821;SDS011;63353;48.702;8.884;2023-07-13T09:46:43;4.70;;;4.40;;
74821;SDS011;63353;48.702;8.884;2023-07-13T09:49:11;4.50;;;4.30;;
74821;SDS011;63353;48.702;8.884;2023-07-13T09:51:38;5.07;;;4.45;;
74821;SDS011;63353;48.702;8.884;2023-07-13T09:54:05;5.28;;;4.57;;
74821;SDS011;63353;48.702;8.884;2023-07-13T09:56:42;4.70;;;4.30;;
74821;SDS011;63353;48.702;8.884;2023-07-13T09:59:18;7.97;;;4.28;;
74821;SDS011;63353;48.702;8.884;2023-07-13T10:01:45;4.82;;;4.53;;
74821;SDS011;63353;48.702;8.884;2023-07-13T10:04:14;4.88;;;4.65;;
74821;SDS011;63353;48.702;8.884;2023-07-13T10:06:43;5.15;;;4.85;;
74821;SDS011;63353;48.702;8.884;2023-07-13T10:09:10;5.35;;;4.95;;
74821;SDS011;63353;48.702;8.884;2023-07-13T10:11:40;4.88;;;4.63;;
74821;SDS011;63353;48.702;8.884;2023-07-13T10:14:10;4.90;;;4.70;;
74821;SDS011;63353;48.702;8.884;2023-07-13T10:16:36;4.90;;;4.63;;
74821;SDS011;63353;48.702;8.884;2023-07-13T10:19:06;4.97;;;4.68;;
74821;SDS011;63353;48.702;8.884;2023-07-13T10:21:47;4.72;;;4.43;;
74821;SDS011;63353;48.702;8.884;2023-07-13T10:24:24;4.97;;;4.65;;
74821;SDS011;63353;48.702;8.884;2023-07-13T10:29:53;5.63;;;4.60;;
74821;SDS011;63353;48.702;8.884;2023-07-13T10:32:21;4.70;;;4.50;;
74821;SDS011;63353;48.702;8.884;2023-07-13T10:34:49;4.90;;;4.60;;
74821;SDS011;63353;48.702;8.884;2023-07-13T10:37:26;5.25;;;4.78;;
74821;SDS011;63353;48.702;8.884;2023-07-13T10:39:56;5.18;;;4.97;;
74821;SDS011;63353;48.702;8.884;2023-07-13T10:42:37;4.70;;;4.45;;
74821;SDS011;63353;48.702;8.884;2023-07-13T10:45:16;4.75;;;4.45;;
74821;SDS011;63353;48.702;8.884;2023-07-13T10:47:45;4.88;;;4.57;;
74821;SDS011;63353;48.702;8.884;2023-07-13T10:50:17;5.13;;;4.82;;
74821;SDS011;63353;48.702;8.884;2023-07-13T10:52:46;5.28;;;4.82;;
74821;SDS011;63353;48.702;8.884;2023-07-13T10:55:37;4.60;;;4.30;;
74821;SDS011;63353;48.702;8.884;2023-07-13T11:01:17;5.22;;;4.95;;
74821;SDS011;63353;48.702;8.884;2023-07-13T11:08:56;5.30;;;4.75;;
74821;SDS011;63353;48.702;8.884;2023-07-13T11:21:23;5.35;;;4.80;;
74821;SDS011;63353;48.702;8.884;2023-07-13T11:29:25;5.47;;;5.03;;
74821;SDS011;63353;48.702;8.884;2023-07-13T11:31:52;5.13;;;4.80;;
74821;SDS011;63353;48.702;8.884;2023-07-13T11:34:36;4.97;;;4.78;;
74821;SDS011;63353;48.702;8.884;2023-07-13T11:37:03;5.22;;;4.97;;
74821;SDS011;63353;48.702;8.884;2023-07-13T11:39:38;5.43;;;5.13;;
74821;SDS011;63353;48.702;8.884;2023-07-13T11:42:10;5.10;;;4.78;;
74821;SDS011;63353;48.702;8.884;2023-07-13T11:44:43;5.97;;;5.45;;
74821;SDS011;63353;48.702;8.884;2023-07-13T11:47:14;5.03;;;4.60;;
74821;SDS011;63353;48.702;8.884;2023-07-13T11:49:45;5.32;;;4.93;;
74821;SDS011;63353;48.702;8.884;2023-07-13T11:52:15;5.40;;;5.00;;
74821;SDS011;63353;48.702;8.884;2023-07-13T11:54:56;5.75;;;5.45;;
74821;SDS011;63353;48.702;8.884;2023-07-13T11:57:26;5.63;;;5.30;;
74821;SDS011;63353;48.702;8.884;2023-07-13T11:59:59;5.10;;;4.80;;
74821;SDS011;63353;48.702;8.884;2023-07-13T12:02:37;5.15;;;4.85;;
74821;SDS011;63353;48.702;8.884;2023-07-13T12:05:08;5.60;;;5.20;;
74821;SDS011;63353;48.702;8.884;2023-07-13T12:07:37;5.30;;;5.00;;
74821;SDS011;63353;48.702;8.884;2023-07-13T12:10:25;4.90;;;4.70;;
74821;SDS011;63353;48.702;8.884;2023-07-13T12:13:00;5.57;;;5.18;;
74821;SDS011;63353;48.702;8.884;2023-07-13T12:15:41;5.60;;;5.20;;
74821;SDS011;63353;48.702;8.884;2023-07-13T12:18:13;5.63;;;5.22;;
74821;SDS011;63353;48.702;8.884;2023-07-13T12:20:55;5.35;;;4.95;;
74821;SDS011;63353;48.702;8.884;2023-07-13T12:23:33;5.30;;;4.95;;
74821;SDS011;63353;48.702;8.884;2023-07-13T12:26:04;6.57;;;6.13;;
74821;SDS011;63353;48.702;8.884;2023-07-13T12:31:00;5.05;;;4.78;;
74821;SDS011;63353;48.702;8.884;2023-07-13T12:33:28;6.18;;;5.57;;
74821;SDS011;63353;48.702;8.884;2023-07-13T12:35:55;5.75;;;5.35;;
74821;SDS011;63353;48.702;8.884;2023-07-13T12:38:24;5.68;;;5.28;;
74821;SDS011;63353;48.702;8.884;2023-07-13T12:40:51;5.93;;;5.55;;
74821;SDS011;63353;48.702;8.884;2023-07-13T12:43:17;5.60;;;5.30;;
74821;SDS011;63353;48.702;8.884;2023-07-13T12:48:27;5.65;;;5.35;;
74821;SDS011;63353;48.702;8.884;2023-07-13T12:50:53;5.68;;;5.38;;
74821;SDS011;63353;48.702;8.884;2023-07-13T12:53:27;6.00;;;5.45;;
74821;SDS011;63353;48.702;8.884;2023-07-13T12:55:56;5.55;;;5.18;;
74821;SDS011;63353;48.702;8.884;2023-07-13T12:58:39;5.57;;;5.18;;
74821;SDS011;63353;48.702;8.884;2023-07-13T13:01:09;6.22;;;5.70;;
74821;SDS011;63353;48.702;8.884;2023-07-13T13:03:48;6.03;;;5.70;;
74821;SDS011;63353;48.702;8.884;2023-07-13T13:08:47;5.85;;;5.53;;
74821;SDS011;63353;48.702;8.884;2023-07-13T13:11:15;5.82;;;5.53;;
74821;SDS011;63353;48.702;8.884;2023-07-13T13:13:41;6.00;;;5.60;;
74821;SDS011;63353;48.702;8.884;2023-07-13T13:18:45;5.10;;;4.90;;
74821;SDS011;63353;48.702;8.884;2023-07-13T13:21:10;5.28;;;4.90;;
74821;SDS011;63353;48.702;8.884;2023-07-13T13:23:36;5.30;;;5.00;;
74821;SDS011;63353;48.702;8.884;2023-07-13T13:26:02;5.70;;;5.47;;
74821;SDS011;63353;48.702;8.884;2023-07-13T13:28:31;5.63;;;5.28;;
74821;SDS011;63353;48.702;8.884;2023-07-13T13:30:57;5.65;;;5.32;;
74821;SDS011;63353;48.702;8.884;2023-07-13T13:33:24;5.60;;;5.30;;
74821;SDS011;63353;48.702;8.884;2023-07-13T13:35:49;6.13;;;5.63;;
74821;SDS011;63353;48.702;8.884;2023-07-13T13:38:16;6.30;;;5.80;;
74821;SDS011;63353;48.702;8.884;2023-07-13T13:40:44;5.38;;;5.18;;
74821;SDS011;63353;48.702;8.884;2023-07-13T13:43:17;5.57;;;5.30;;
74821;SDS011;63353;48.702;8.884;2023-07-13T13:45:44;5.65;;;5.32;;
74821;SDS011;63353;48.702;8.884;2023-07-13T13:48:18;6.13;;;5.60;;
74821;SDS011;63353;48.702;8.884;2023-07-13T13:50:47;5.82;;;5.47;;
74821;SDS011;63353;48.702;8.884;2023-07-13T13:53:13;6.28;;;5.63;;
74821;SDS011;63353;48.702;8.884;2023-07-13T13:55:39;5.63;;;5.10;;
74821;SDS011;63353;48.702;8.884;2023-07-13T13:58:07;6.07;;;5.57;;
74821;SDS011;63353;48.702;8.884;2023-07-13T14:00:34;5.53;;;5.30;;
74821;SDS011;63353;48.702;8.884;2023-07-13T14:03:01;5.95;;;5.55;;
74821;SDS011;63353;48.702;8.884;2023-07-13T14:05:27;6.03;;;5.53;;
74821;SDS011;63353;48.702;8.884;2023-07-13T14:07:55;5.05;;;4.82;;
74821;SDS011;63353;48.702;8.884;2023-07-13T14:10:22;6.22;;;5.68;;
74821;SDS011;63353;48.702;8.884;2023-07-13T14:12:50;6.05;;;5.55;;
74821;SDS011;63353;48.702;8.884;2023-07-13T14:15:23;5.07;;;4.88;;
74821;SDS011;63353;48.702;8.884;2023-07-13T14:17:51;6.10;;;5.70;;
74821;SDS011;63353;48.702;8.884;2023-07-13T14:20:17;5.43;;;5.05;;
74821;SDS011;63353;48.702;8.884;2023-07-13T14:22:45;5.50;;;5.20;;
74821;SDS011;63353;48.702;8.884;2023-07-13T14:25:11;5.13;;;4.75;;
74821;SDS011;63353;48.702;8.884;2023-07-13T14:27:38;5.40;;;5.00;;
74821;SDS011;63353;48.702;8.884;2023-07-13T14:30:12;5.30;;;4.95;;
74821;SDS011;63353;48.702;8.884;2023-07-13T14:32:39;5.40;;;5.10;;
74821;SDS011;63353;48.702;8.884;2023-07-13T14:35:05;5.43;;;5.13;;
74821;SDS011;63353;48.702;8.884;2023-07-13T14:37:32;6.05;;;5.70;;
74821;SDS011;63353;48.702;8.884;2023-07-13T14:39:59;5.82;;;5.43;;
74821;SDS011;63353;48.702;8.884;2023-07-13T14:42:25;5.53;;;5.10;;
74821;SDS011;63353;48.702;8.884;2023-07-13T14:44:51;5.85;;;5.35;;
74821;SDS011;63353;48.702;8.884;2023-07-13T14:47:16;5.55;;;5.25;;
74821;SDS011;63353;48.702;8.884;2023-07-13T14:49:43;6.35;;;5.95;;
74821;SDS011;63353;48.702;8.884;2023-07-13T14:54:35;5.03;;;4.68;;
74821;SDS011;63353;48.702;8.884;2023-07-13T14:57:08;5.55;;;5.25;;
74821;SDS011;63353;48.702;8.884;2023-07-13T14:59:39;5.97;;;5.47;;
74821;SDS011;63353;48.702;8.884;2023-07-13T15:02:15;5.78;;;5.28;;
74821;SDS011;63353;48.702;8.884;2023-07-13T15:05:05;6.13;;;5.78;;
74821;SDS011;63353;48.702;8.884;2023-07-13T15:07:38;6.32;;;5.85;;
74821;SDS011;63353;48.702;8.884;2023-07-13T15:10:23;5.60;;;5.28;;
74821;SDS011;63353;48.702;8.884;2023-07-13T15:12:51;5.50;;;5.30;;
74821;SDS011;63353;48.702;8.884;2023-07-13T15:15:18;6.28;;;5.78;;
74821;SDS011;63353;48.702;8.884;2023-07-13T15:17:45;5.80;;;5.40;;
74821;SDS011;63353;48.702;8.884;2023-07-13T15:20:21;5.50;;;5.20;;
74821;SDS011;63353;48.702;8.884;2023-07-13T15:22:57;5.90;;;5.60;;
74821;SDS011;63353;48.702;8.884;2023-07-13T15:25:25;5.40;;;5.10;;
74821;SDS011;63353;48.702;8.884;2023-07-13T15:27:55;6.00;;;5.55;;
74821;SDS011;63353;48.702;8.884;2023-07-13T15:30:22;5.40;;;5.10;;
74821;SDS011;63353;48.702;8.884;2023-07-13T15:33:03;5.97;;;5.60;;
74821;SDS011;63353;48.702;8.884;2023-07-13T15:35:40;5.93;;;5.63;;
74821;SDS011;63353;48.702;8.884;2023-07-13T15:40:43;5.88;;;5.57;;
74821;SDS011;63353;48.702;8.884;2023-07-13T15:43:12;5.57;;;5.30;;
74821;SDS011;63353;48.702;8.884;2023-07-13T15:45:39;6.07;;;5.80;;
74821;SDS011;63353;48.702;8.884;2023-07-13T15:48:15;6.18;;;5.75;;
74821;SDS011;63353;48.702;8.884;2023-07-13T15:50:44;6.57;;;6.28;;
74821;SDS011;63353;48.702;8.884;2023-07-13T15:53:20;6.57;;;6.07;;
74821;SDS011;63353;48.702;8.884;2023-07-13T15:55:48;6.18;;;5.88;;
74821;SDS011;63353;48.702;8.884;2023-07-13T15:58:15;6.32;;;5.82;;